Time;durP1;ratioP1;P1;durP2;ratioP2;P2;SDS_P1;SDS_P2;PMS_P1;PMS_P2;Temp;Humidity;BMP_temperature;BMP_pressure;BME280_temperature;BME280_humidity;BME280_pressure;Samples;Min_cycle;Max_cycle;Signal;HPM_P1;HPM_P2
2021/10/01 00:01:54;;;;;;;24.00;10.87;;;;;;;;;;5009216;28;20473;-72
2021/10/01 00:04:21;;;;;;;25.37;10.43;;;;;;;;;;5009403;28;20123;-72
2021/10/01 00:06:46;;;;;;;22.13;11.57;;;;;;;;;;5009128;28;20029;-70
2021/10/01 00:09:12;;;;;;;26.70;11.13;;;;;;;;;;5009511;28;20038;-70
2021/10/01 00:11:41;;;;;;;31.43;11.93;;;;;;;;;;5009654;28;20053;-71
2021/10/01 00:14:06;;;;;;;25.33;10.87;;;;;;;;;;5010788;28;20025;-71
2021/10/01 00:16:32;;;;;;;25.67;12.00;;;;;;;;;;5010520;28;20105;-72
2021/10/01 00:18:57;;;;;;;21.10;10.27;;;;;;;;;;5010342;28;20037;-72
2021/10/01 00:21:23;;;;;;;38.03;11.73;;;;;;;;;;5009127;28;20486;-71
2021/10/01 00:23:48;;;;;;;21.57;10.03;;;;;;;;;;5025249;28;20466;-72
2021/10/01 00:26:14;;;;;;;23.07;11.17;;;;;;;;;;5010338;28;20064;-72
2021/10/01 00:28:39;;;;;;;24.20;11.30;;;;;;;;;;5008663;28;20022;-71
2021/10/01 00:31:05;;;;;;;27.10;10.07;;;;;;;;;;5010309;28;20073;-71
2021/10/01 00:33:30;;;;;;;29.97;10.93;;;;;;;;;;5008857;28;20152;-72
2021/10/01 00:35:59;;;;;;;25.07;12.60;;;;;;;;;;5008725;28;20049;-71
2021/10/01 00:38:25;;;;;;;27.40;11.03;;;;;;;;;;5008865;28;20113;-71
2021/10/01 00:40:51;;;;;;;22.43;10.77;;;;;;;;;;5007977;28;20026;-70
2021/10/01 00:43:16;;;;;;;22.73;10.40;;;;;;;;;;5010038;28;20398;-70
2021/10/01 00:45:42;;;;;;;26.47;10.60;;;;;;;;;;5025094;28;20109;-71
2021/10/01 00:48:07;;;;;;;28.43;10.87;;;;;;;;;;5010291;28;20493;-72
2021/10/01 00:50:33;;;;;;;31.80;10.93;;;;;;;;;;5008996;28;20026;-71
2021/10/01 00:52:58;;;;;;;22.53;10.87;;;;;;;;;;5011263;28;20029;-70
2021/10/01 00:55:26;;;;;;;25.63;10.83;;;;;;;;;;5009715;28;20046;-72
2021/10/01 00:57:51;;;;;;;22.50;10.57;;;;;;;;;;5009843;28;20030;-72
2021/10/01 01:00:27;;;;;;;26.23;11.43;;;;;;;;;;5009853;28;20161;-71
2021/10/01 01:02:59;;;;;;;22.03;10.37;;;;;;;;;;5009909;28;20022;-71
2021/10/01 01:05:38;;;;;;;27.33;11.23;;;;;;;;;;5008795;28;20026;-72
2021/10/01 01:08:09;;;;;;;28.17;11.63;;;;;;;;;;5009017;28;20415;-72
2021/10/01 01:10:56;;;;;;;29.10;12.02;;;;;;;;;;5008736;28;20133;-71
2021/10/01 01:13:34;;;;;;;27.33;12.83;;;;;;;;;;5009721;28;20405;-71
2021/10/01 01:16:09;;;;;;;26.33;10.97;;;;;;;;;;5009591;28;20026;-71
2021/10/01 01:18:43;;;;;;;30.67;10.80;;;;;;;;;;5010211;28;20099;-73
2021/10/01 01:21:22;;;;;;;29.67;11.30;;;;;;;;;;5019125;28;20025;-71
2021/10/01 01:23:54;;;;;;;24.20;11.50;;;;;;;;;;5027167;28;20459;-70
2021/10/01 01:26:38;;;;;;;24.90;11.50;;;;;;;;;;5028315;28;20030;-72
2021/10/01 01:29:28;;;;;;;34.30;12.20;;;;;;;;;;5029270;28;20041;-70
2021/10/01 01:31:54;;;;;;;28.37;10.90;;;;;;;;;;5027764;28;20087;-71
2021/10/01 01:34:39;;;;;;;22.03;10.50;;;;;;;;;;5027840;28;20046;-72
2021/10/01 01:37:27;;;;;;;24.17;11.23;;;;;;;;;;5027949;28;20137;-71
2021/10/01 01:39:55;;;;;;;25.53;10.90;;;;;;;;;;5029268;28;20405;-71
2021/10/01 01:42:22;;;;;;;22.63;10.57;;;;;;;;;;5027770;28;20029;-71
2021/10/01 01:44:49;;;;;;;26.27;11.13;;;;;;;;;;5027629;28;20025;-70
2021/10/01 01:47:15;;;;;;;26.93;11.83;;;;;;;;;;5027966;28;20025;-72
2021/10/01 01:49:43;;;;;;;27.20;12.57;;;;;;;;;;5029177;28;20049;-71
2021/10/01 01:52:09;;;;;;;26.47;11.60;;;;;;;;;;5029465;28;20032;-71
2021/10/01 01:54:35;;;;;;;23.03;12.00;;;;;;;;;;5032899;28;20104;-71
2021/10/01 01:57:02;;;;;;;24.83;11.93;;;;;;;;;;5030112;28;20025;-70
2021/10/01 01:59:29;;;;;;;25.10;12.00;;;;;;;;;;5044870;28;20028;-71
2021/10/01 02:01:56;;;;;;;25.83;11.43;;;;;;;;;;5037071;28;20020;-73
2021/10/01 02:04:23;;;;;;;25.37;11.70;;;;;;;;;;5051157;28;20460;-72
2021/10/01 02:06:49;;;;;;;30.07;12.27;;;;;;;;;;5034197;28;20120;-72
2021/10/01 02:09:16;;;;;;;21.50;11.33;;;;;;;;;;5031130;28;20053;-72
2021/10/01 02:11:44;;;;;;;25.37;11.73;;;;;;;;;;5035818;28;20045;-73
2021/10/01 02:14:12;;;;;;;27.80;12.07;;;;;;;;;;5040601;28;20029;-72
2021/10/01 02:16:39;;;;;;;26.90;11.17;;;;;;;;;;5030068;28;20033;-72
2021/10/01 02:19:05;;;;;;;25.90;10.67;;;;;;;;;;5045694;28;20041;-71
2021/10/01 02:21:33;;;;;;;22.80;11.20;;;;;;;;;;5031088;28;20113;-71
2021/10/01 02:23:59;;;;;;;22.30;10.43;;;;;;;;;;5038754;28;20021;-71
2021/10/01 02:26:48;;;;;;;23.83;11.30;;;;;;;;;;5037170;28;20033;-72
2021/10/01 02:29:30;;;;;;;23.97;10.17;;;;;;;;;;5030475;28;20057;-73
2021/10/01 02:32:09;;;;;;;26.38;9.93;;;;;;;;;;5030501;28;20040;-70
2021/10/01 02:34:45;;;;;;;25.10;10.77;;;;;;;;;;5030721;28;20061;-72
2021/10/01 02:37:12;;;;;;;20.43;10.57;;;;;;;;;;5031155;28;20025;-71
2021/10/01 02:39:41;;;;;;;24.13;9.97;;;;;;;;;;5030860;28;20075;-71
2021/10/01 02:42:08;;;;;;;24.70;10.93;;;;;;;;;;5031772;28;20106;-71
2021/10/01 02:44:35;;;;;;;27.47;11.13;;;;;;;;;;5031831;28;20088;-71
2021/10/01 02:47:02;;;;;;;23.47;11.10;;;;;;;;;;5031594;28;20025;-72
2021/10/01 02:49:29;;;;;;;24.33;10.50;;;;;;;;;;5031923;28;20095;-72
2021/10/01 02:51:58;;;;;;;26.50;11.40;;;;;;;;;;5031471;28;20144;-70
2021/10/01 02:54:30;;;;;;;20.73;10.83;;;;;;;;;;5030329;28;20025;-71
2021/10/01 02:57:04;;;;;;;22.00;10.40;;;;;;;;;;5030430;28;20485;-70
2021/10/01 02:59:32;;;;;;;17.30;9.30;;;;;;;;;;5032024;28;20032;-72
2021/10/01 03:01:59;;;;;;;22.47;10.53;;;;;;;;;;5031458;28;20104;-72
2021/10/01 03:04:26;;;;;;;27.43;10.73;;;;;;;;;;5029491;28;20132;-72
2021/10/01 03:06:52;;;;;;;31.20;11.40;;;;;;;;;;5029759;28;20584;-72
2021/10/01 03:09:22;;;;;;;34.57;11.90;;;;;;;;;;5030005;28;20116;-73
2021/10/01 03:11:48;;;;;;;27.77;10.83;;;;;;;;;;5029672;28;20029;-71
2021/10/01 03:14:17;;;;;;;39.37;11.43;;;;;;;;;;5031454;28;20109;-72
2021/10/01 03:16:44;;;;;;;27.17;11.47;;;;;;;;;;5029904;28;20489;-71
2021/10/01 03:19:11;;;;;;;26.93;10.87;;;;;;;;;;5030381;28;20021;-71
2021/10/01 03:21:37;;;;;;;29.83;11.67;;;;;;;;;;5032062;28;20043;-71
2021/10/01 03:24:05;;;;;;;28.47;11.60;;;;;;;;;;5030632;28;20029;-73
2021/10/01 03:26:31;;;;;;;26.80;12.33;;;;;;;;;;5032596;28;20095;-70
2021/10/01 03:28:57;;;;;;;27.37;12.00;;;;;;;;;;5031315;28;20040;-72
2021/10/01 03:31:25;;;;;;;21.90;10.73;;;;;;;;;;5030997;28;20017;-72
2021/10/01 03:33:50;;;;;;;33.20;10.50;;;;;;;;;;5029205;28;20073;-71
2021/10/01 03:36:16;;;;;;;24.93;10.73;;;;;;;;;;5029720;28;20479;-71
2021/10/01 03:38:45;;;;;;;26.30;10.83;;;;;;;;;;5029376;28;20051;-71
2021/10/01 03:41:11;;;;;;;23.87;11.43;;;;;;;;;;5030876;28;20469;-72
2021/10/01 03:43:36;;;;;;;22.10;11.50;;;;;;;;;;5029539;28;20230;-72
2021/10/01 03:46:02;;;;;;;26.60;11.77;;;;;;;;;;5029396;28;20120;-71
2021/10/01 03:48:28;;;;;;;27.63;14.33;;;;;;;;;;5030781;28;20527;-71
2021/10/01 03:50:54;;;;;;;25.63;10.83;;;;;;;;;;5030731;28;20025;-70
2021/10/01 03:53:19;;;;;;;23.67;11.67;;;;;;;;;;5029195;28;20032;-72
2021/10/01 03:55:45;;;;;;;26.13;11.10;;;;;;;;;;5029314;28;20021;-71
2021/10/01 03:58:11;;;;;;;23.27;12.10;;;;;;;;;;5028629;28;20025;-70
2021/10/01 04:00:37;;;;;;;31.97;12.40;;;;;;;;;;5029230;28;20432;-71
2021/10/01 04:03:03;;;;;;;28.80;12.43;;;;;;;;;;5028804;28;20413;-71
2021/10/01 04:05:28;;;;;;;35.70;13.33;;;;;;;;;;5030459;28;20021;-71
2021/10/01 04:07:54;;;;;;;25.33;11.37;;;;;;;;;;5028894;28;20535;-71
2021/10/01 04:10:19;;;;;;;28.93;12.83;;;;;;;;;;5028933;28;20037;-72
2021/10/01 04:12:45;;;;;;;22.17;11.03;;;;;;;;;;5028877;28;20041;-72
2021/10/01 04:15:11;;;;;;;29.43;11.67;;;;;;;;;;5028616;28;20489;-71
2021/10/01 04:17:37;;;;;;;23.60;11.60;;;;;;;;;;5029876;28;20116;-72
2021/10/01 04:20:04;;;;;;;29.77;13.30;;;;;;;;;;5028361;28;20117;-72
2021/10/01 04:22:30;;;;;;;26.90;12.00;;;;;;;;;;5028967;28;20120;-70
2021/10/01 04:24:56;;;;;;;32.83;14.43;;;;;;;;;;5027922;28;20049;-72
2021/10/01 04:27:21;;;;;;;26.47;11.73;;;;;;;;;;5029634;28;20469;-71
2021/10/01 04:29:47;;;;;;;24.67;12.57;;;;;;;;;;5029873;28;20040;-70
2021/10/01 04:32:13;;;;;;;29.80;13.47;;;;;;;;;;5029753;28;20308;-73
2021/10/01 04:35:03;;;;;;;35.17;11.97;;;;;;;;;;5028394;28;20037;-71
2021/10/01 04:37:28;;;;;;;27.23;12.10;;;;;;;;;;5028397;28;20114;-71
2021/10/01 04:39:54;;;;;;;37.93;16.53;;;;;;;;;;5029349;28;20108;-70
2021/10/01 04:42:21;;;;;;;29.80;12.70;;;;;;;;;;5029592;28;20031;-72
2021/10/01 04:44:46;;;;;;;29.37;13.83;;;;;;;;;;5029667;28;20044;-71
2021/10/01 04:47:11;;;;;;;27.57;13.20;;;;;;;;;;5029422;28;20465;-71
2021/10/01 04:49:37;;;;;;;31.43;13.73;;;;;;;;;;5029339;28;20032;-71
2021/10/01 04:52:03;;;;;;;28.20;13.87;;;;;;;;;;5028240;28;20358;-71
2021/10/01 04:54:28;;;;;;;27.23;12.23;;;;;;;;;;5028313;28;20029;-72
2021/10/01 04:56:54;;;;;;;32.30;12.60;;;;;;;;;;5028053;28;20168;-71
2021/10/01 04:59:20;;;;;;;22.97;11.07;;;;;;;;;;5029390;28;20029;-71
2021/10/01 05:01:45;;;;;;;26.33;12.50;;;;;;;;;;5029387;28;20085;-72
2021/10/01 05:04:10;;;;;;;26.97;12.63;;;;;;;;;;5029407;28;20092;-72
2021/10/01 05:06:36;;;;;;;25.90;11.50;;;;;;;;;;5029495;28;20025;-71
2021/10/01 05:09:01;;;;;;;26.17;11.73;;;;;;;;;;5027573;28;20377;-72
2021/10/01 05:11:27;;;;;;;25.43;11.80;;;;;;;;;;5028014;28;20036;-72
2021/10/01 05:13:52;;;;;;;30.67;13.33;;;;;;;;;;5029186;28;20033;-73
2021/10/01 05:16:18;;;;;;;26.73;12.93;;;;;;;;;;5026192;28;20034;-73
2021/10/01 05:18:44;;;;;;;53.67;14.43;;;;;;;;;;5026980;28;20029;-71
2021/10/01 05:21:09;;;;;;;41.00;14.07;;;;;;;;;;5028608;28;20045;-72
2021/10/01 05:23:34;;;;;;;34.67;13.97;;;;;;;;;;5028908;28;20052;-71
2021/10/01 05:26:00;;;;;;;29.07;13.03;;;;;;;;;;5027685;28;20080;-72
2021/10/01 05:28:26;;;;;;;31.93;12.33;;;;;;;;;;5030215;28;20026;-72
2021/10/01 05:30:51;;;;;;;35.37;15.10;;;;;;;;;;5033504;28;20029;-71
2021/10/01 05:33:17;;;;;;;35.43;12.87;;;;;;;;;;5028827;28;20319;-72
2021/10/01 05:35:44;;;;;;;37.93;13.23;;;;;;;;;;5010013;28;20022;-72
2021/10/01 05:38:11;;;;;;;31.03;14.50;;;;;;;;;;5011391;28;20390;-71
2021/10/01 05:40:38;;;;;;;33.63;13.30;;;;;;;;;;5012912;28;20132;-73
2021/10/01 05:43:05;;;;;;;28.57;13.07;;;;;;;;;;5029555;28;20385;-72
2021/10/01 05:45:31;;;;;;;24.53;12.17;;;;;;;;;;5030593;28;20057;-73
2021/10/01 05:47:57;;;;;;;32.50;14.67;;;;;;;;;;5015506;28;20018;-74
2021/10/01 05:50:25;;;;;;;29.83;14.63;;;;;;;;;;5010619;28;20034;-73
2021/10/01 05:53:00;;;;;;;27.20;13.23;;;;;;;;;;5029672;28;20014;-74
2021/10/01 05:55:25;;;;;;;21.93;11.23;;;;;;;;;;5029848;28;20173;-74
2021/10/01 05:57:51;;;;;;;32.00;14.13;;;;;;;;;;5029350;28;20041;-72
2021/10/01 06:00:17;;;;;;;27.97;13.13;;;;;;;;;;5030439;28;20435;-73
2021/10/01 06:02:43;;;;;;;32.50;14.23;;;;;;;;;;5029123;28;20059;-73
2021/10/01 06:05:10;;;;;;;29.60;13.93;;;;;;;;;;5011857;28;20095;-73
2021/10/01 06:07:36;;;;;;;30.27;13.03;;;;;;;;;;5028031;28;20061;-73
2021/10/01 06:10:04;;;;;;;31.30;17.97;;;;;;;;;;5028101;28;20064;-73
2021/10/01 06:12:30;;;;;;;30.07;12.97;;;;;;;;;;5028345;28;20428;-73
2021/10/01 06:14:55;;;;;;;35.73;13.07;;;;;;;;;;5028947;28;20108;-73
2021/10/01 06:17:21;;;;;;;28.90;13.13;;;;;;;;;;5029604;28;20079;-73
2021/10/01 06:19:46;;;;;;;28.63;15.10;;;;;;;;;;5025805;28;20496;-72
2021/10/01 06:22:13;;;;;;;29.97;13.27;;;;;;;;;;5028703;28;20033;-73
2021/10/01 06:24:39;;;;;;;31.03;13.83;;;;;;;;;;5029219;28;20097;-73
2021/10/01 06:27:06;;;;;;;26.67;13.17;;;;;;;;;;5028942;28;20032;-74
2021/10/01 06:29:32;;;;;;;30.43;13.63;;;;;;;;;;5028004;28;20438;-74
2021/10/01 06:31:58;;;;;;;31.07;13.53;;;;;;;;;;5026956;28;20548;-73
2021/10/01 06:34:24;;;;;;;26.73;13.33;;;;;;;;;;5028582;28;20052;-74
2021/10/01 06:36:50;;;;;;;30.80;13.40;;;;;;;;;;5027616;28;20033;-75
2021/10/01 06:39:15;;;;;;;35.60;14.23;;;;;;;;;;5044236;28;20361;-72
2021/10/01 06:41:42;;;;;;;28.60;13.17;;;;;;;;;;5044923;28;20021;-73
2021/10/01 06:44:10;;;;;;;44.73;12.57;;;;;;;;;;5030268;28;20087;-73
2021/10/01 08:21:25;;;;;;;28.35;14.32;;;;;;;;;;5020433;28;20093;-75
2021/10/01 08:23:56;;;;;;;31.30;11.87;;;;;;;;;;5020323;28;20493;-74
2021/10/01 08:26:23;;;;;;;25.23;11.20;;;;;;;;;;5019835;28;20068;-74
2021/10/01 08:28:48;;;;;;;25.93;16.53;;;;;;;;;;5020327;28;20031;-75
2021/10/01 08:31:14;;;;;;;23.37;11.33;;;;;;;;;;5008514;28;20136;-74
2021/10/01 08:33:40;;;;;;;26.27;11.40;;;;;;;;;;5021447;28;20469;-74
2021/10/01 08:36:06;;;;;;;22.37;11.53;;;;;;;;;;5021731;28;20033;-74
2021/10/01 08:38:31;;;;;;;29.57;11.87;;;;;;;;;;5021837;28;20025;-75
2021/10/01 08:40:58;;;;;;;21.43;11.37;;;;;;;;;;5022194;28;20544;-75
2021/10/01 08:43:25;;;;;;;27.40;12.37;;;;;;;;;;5036910;28;20045;-75
2021/10/01 08:45:51;;;;;;;28.53;11.17;;;;;;;;;;5023059;28;20029;-74
2021/10/01 08:48:17;;;;;;;26.30;12.63;;;;;;;;;;5017693;28;20381;-75
2021/10/01 08:50:43;;;;;;;26.43;12.10;;;;;;;;;;5022164;28;20417;-76
2021/10/01 08:53:10;;;;;;;25.65;12.13;;;;;;;;;;5023065;28;20026;-75
2021/10/01 08:55:37;;;;;;;29.02;13.93;;;;;;;;;;5022758;28;20041;-74
2021/10/01 08:58:03;;;;;;;27.73;12.32;;;;;;;;;;5020439;28;20097;-74
2021/10/01 09:00:30;;;;;;;23.58;12.52;;;;;;;;;;5020236;28;20033;-74
2021/10/01 09:02:56;;;;;;;34.35;13.60;;;;;;;;;;5024558;28;20094;-75
2021/10/01 09:05:24;;;;;;;34.03;13.40;;;;;;;;;;5022067;28;20121;-76
2021/10/01 09:07:50;;;;;;;27.63;12.57;;;;;;;;;;5021954;28;20142;-74
2021/10/01 09:10:17;;;;;;;32.78;12.90;;;;;;;;;;5003819;28;20469;-74
2021/10/01 09:12:54;;;;;;;37.85;13.45;;;;;;;;;;5024330;28;20034;-75
2021/10/01 09:15:21;;;;;;;22.55;11.60;;;;;;;;;;5017994;28;20037;-75
2021/10/01 09:17:49;;;;;;;24.02;10.90;;;;;;;;;;5020984;28;20045;-73
2021/10/01 09:20:15;;;;;;;23.77;11.05;;;;;;;;;;5017203;28;20500;-74
2021/10/01 09:22:41;;;;;;;28.55;12.95;;;;;;;;;;5022765;28;20087;-74
2021/10/01 09:25:21;;;;;;;18.85;10.10;;;;;;;;;;5002687;28;20500;-74
2021/10/01 09:27:51;;;;;;;33.85;13.25;;;;;;;;;;5018799;28;20091;-75
2021/10/01 09:30:19;;;;;;;29.65;11.40;;;;;;;;;;5016534;28;20021;-74
2021/10/01 09:33:06;;;;;;;20.60;12.00;;;;;;;;;;5021714;28;20053;-75
2021/10/01 09:35:32;;;;;;;28.20;11.63;;;;;;;;;;5019932;28;20056;-76
2021/10/01 09:38:09;;;;;;;22.30;10.10;;;;;;;;;;5021780;28;20026;-74
2021/10/01 09:40:35;;;;;;;19.98;10.27;;;;;;;;;;5019494;28;20536;-74
2021/10/01 09:43:00;;;;;;;23.02;10.82;;;;;;;;;;5024393;28;20036;-74
2021/10/01 09:45:26;;;;;;;16.08;9.88;;;;;;;;;;5018470;28;20116;-73
2021/10/01 09:47:52;;;;;;;19.33;9.50;;;;;;;;;;5019857;28;20059;-74
2021/10/01 09:50:30;;;;;;;23.77;9.98;;;;;;;;;;5014198;28;20032;-75
2021/10/01 09:53:03;;;;;;;20.55;8.80;;;;;;;;;;5015159;28;20871;-74
2021/10/01 09:55:35;;;;;;;18.70;9.82;;;;;;;;;;5018790;28;20029;-75
2021/10/01 09:58:12;;;;;;;14.68;8.65;;;;;;;;;;5018050;28;20084;-74
2021/10/01 10:00:44;;;;;;;19.63;10.52;;;;;;;;;;5020062;28;20037;-75
2021/10/01 10:03:13;;;;;;;18.40;8.32;;;;;;;;;;5017875;28;20403;-74
2021/10/01 10:06:02;;;;;;;19.77;9.93;;;;;;;;;;5019762;28;20036;-73
2021/10/01 10:08:35;;;;;;;19.23;9.32;;;;;;;;;;5012933;28;20025;-74
2021/10/01 10:11:06;;;;;;;30.58;9.38;;;;;;;;;;5015763;28;20436;-74
2021/10/01 10:13:46;;;;;;;23.17;10.07;;;;;;;;;;5016346;28;20056;-73
2021/10/01 10:16:27;;;;;;;18.77;10.30;;;;;;;;;;5021989;28;20035;-75
2021/10/01 10:19:06;;;;;;;17.45;8.65;;;;;;;;;;5020619;28;20026;-74
2021/10/01 10:21:32;;;;;;;17.15;8.38;;;;;;;;;;5022053;28;20231;-75
2021/10/01 10:23:58;;;;;;;21.60;8.52;;;;;;;;;;5021708;28;20096;-74
2021/10/01 10:26:26;;;;;;;17.73;8.00;;;;;;;;;;5022101;28;20622;-76
2021/10/01 10:28:54;;;;;;;16.85;9.82;;;;;;;;;;5019349;28;20032;-76
2021/10/01 10:31:26;;;;;;;27.52;9.52;;;;;;;;;;5025257;28;20033;-74
2021/10/01 10:33:57;;;;;;;20.10;8.27;;;;;;;;;;5022631;28;20058;-75
2021/10/01 10:36:25;;;;;;;;;;;;;;;;;;5023801;28;20136;-74
2021/10/01 10:38:51;;;;;;;17.55;7.25;;;;;;;;;;5019923;28;19920;-73
2021/10/01 10:41:28;;;;;;;19.73;8.15;;;;;;;;;;5024163;28;20075;-73
2021/10/01 10:43:55;;;;;;;11.82;7.28;;;;;;;;;;5030206;28;20487;-74
2021/10/01 10:46:36;;;;;;;15.57;7.88;;;;;;;;;;5034628;28;20120;-75
2021/10/01 10:49:14;;;;;;;13.60;6.72;;;;;;;;;;5036902;28;20071;-75
2021/10/01 10:52:10;;;;;;;21.10;9.25;;;;;;;;;;5036956;28;20067;-75
2021/10/01 10:54:39;;;;;;;16.15;7.47;;;;;;;;;;5024738;28;20033;-75
2021/10/01 10:57:17;;;;;;;12.95;6.68;;;;;;;;;;5030843;28;20518;-74
2021/10/01 10:59:48;;;;;;;16.40;6.97;;;;;;;;;;5041343;28;20033;-73
2021/10/01 11:02:26;;;;;;;9.13;6.53;;;;;;;;;;5029955;28;20121;-74
2021/10/01 11:05:11;;;;;;;16.45;6.82;;;;;;;;;;5030308;28;20064;-74
2021/10/01 11:07:57;;;;;;;8.57;5.70;;;;;;;;;;5019816;28;20489;-73
2021/10/01 11:10:39;;;;;;;9.50;5.38;;;;;;;;;;5021641;28;20548;-74
2021/10/01 11:13:23;;;;;;;16.58;6.93;;;;;;;;;;5020440;28;20265;-75
2021/10/01 11:16:07;;;;;;;15.38;6.30;;;;;;;;;;5019876;28;20021;-75
2021/10/01 11:18:54;;;;;;;18.40;5.60;;;;;;;;;;5019695;28;20103;-74
2021/10/01 11:21:29;;;;;;;13.50;5.85;;;;;;;;;;5021084;28;20137;-74
2021/10/01 11:24:15;;;;;;;17.17;6.88;;;;;;;;;;5021902;28;20037;-74
2021/10/01 11:26:47;;;;;;;10.57;5.03;;;;;;;;;;5034412;28;20111;-75
2021/10/01 11:29:36;;;;;;;9.73;5.25;;;;;;;;;;5021002;28;20033;-76
2021/10/01 11:32:09;;;;;;;11.95;5.57;;;;;;;;;;5018056;28;20068;-74
2021/10/01 11:34:40;;;;;;;14.68;5.50;;;;;;;;;;5022736;28;20136;-76
2021/10/01 11:37:30;;;;;;;10.25;5.13;;;;;;;;;;5020880;28;20088;-75
2021/10/01 11:40:15;;;;;;;11.07;4.60;;;;;;;;;;5019186;28;20037;-75
2021/10/01 11:42:44;;;;;;;18.25;5.38;;;;;;;;;;5019258;28;20061;-74
2021/10/01 11:45:18;;;;;;;12.48;5.07;;;;;;;;;;5022401;28;20025;-75
2021/10/01 11:47:58;;;;;;;19.85;5.25;;;;;;;;;;5022355;28;20092;-74
2021/10/01 11:50:41;;;;;;;6.97;4.65;;;;;;;;;;5034818;28;20052;-74
2021/10/01 11:53:30;;;;;;;17.08;7.88;;;;;;;;;;5021049;28;20119;-75
2021/10/01 11:56:01;;;;;;;17.52;5.50;;;;;;;;;;5020829;28;20037;-74
2021/10/01 11:58:29;;;;;;;9.15;4.68;;;;;;;;;;5023955;28;20067;-74
2021/10/01 12:01:07;;;;;;;16.25;5.68;;;;;;;;;;5017789;28;20045;-74
2021/10/01 12:03:33;;;;;;;20.48;6.18;;;;;;;;;;5023695;28;20120;-74
2021/10/01 12:05:59;;;;;;;11.35;5.93;;;;;;;;;;5022607;28;20481;-74
2021/10/01 12:08:29;;;;;;;8.02;3.72;;;;;;;;;;5023448;28;20041;-74
2021/10/01 12:10:57;;;;;;;11.30;4.38;;;;;;;;;;5015404;28;20600;-74
2021/10/01 12:13:27;;;;;;;9.20;4.05;;;;;;;;;;5002967;28;20036;-73
2021/10/01 12:16:04;;;;;;;8.05;4.47;;;;;;;;;;5017930;28;20394;-74
2021/10/01 12:18:35;;;;;;;17.73;9.25;;;;;;;;;;5017360;28;20036;-73
2021/10/01 12:21:22;;;;;;;16.38;4.70;;;;;;;;;;5031850;28;20120;-74
2021/10/01 12:23:57;;;;;;;15.55;4.45;;;;;;;;;;5018104;28;20464;-75
2021/10/01 12:26:33;;;;;;;16.77;4.78;;;;;;;;;;5018197;28;20025;-74
2021/10/01 12:29:17;;;;;;;11.73;3.70;;;;;;;;;;5020017;28;20461;-75
2021/10/01 12:31:55;;;;;;;20.25;4.57;;;;;;;;;;5014420;28;20033;-74
2021/10/01 12:34:29;;;;;;;8.23;4.15;;;;;;;;;;5014041;28;20045;-74
2021/10/01 12:37:03;;;;;;;10.27;4.05;;;;;;;;;;5018045;28;20409;-74
2021/10/01 12:39:31;;;;;;;8.90;3.22;;;;;;;;;;5019860;28;20298;-75
2021/10/01 12:42:26;;;;;;;12.65;4.70;;;;;;;;;;5016407;28;20037;-74
2021/10/01 12:45:19;;;;;;;5.13;3.05;;;;;;;;;;5016935;28;20077;-74
2021/10/01 12:47:49;;;;;;;9.95;3.10;;;;;;;;;;5010138;28;20057;-74
2021/10/01 12:50:32;;;;;;;10.38;3.50;;;;;;;;;;5018313;28;20041;-75
2021/10/01 12:53:03;;;;;;;6.97;3.03;;;;;;;;;;5002653;28;20488;-76
2021/10/01 12:55:33;;;;;;;7.53;2.20;;;;;;;;;;5022369;28;20452;-74
2021/10/01 12:57:59;;;;;;;14.02;6.97;;;;;;;;;;5018602;28;20434;-75
2021/10/01 13:00:28;;;;;;;16.30;5.90;;;;;;;;;;5020444;28;20068;-72
2021/10/01 13:03:07;;;;;;;9.13;3.30;;;;;;;;;;5018714;28;20022;-74
2021/10/01 13:05:44;;;;;;;9.48;2.65;;;;;;;;;;5022950;28;20026;-74
2021/10/01 13:08:15;;;;;;;3.42;1.92;;;;;;;;;;5005541;28;20089;-73
2021/10/01 13:10:49;;;;;;;4.95;2.10;;;;;;;;;;5000279;28;20859;-74
2021/10/01 13:13:28;;;;;;;6.78;2.20;;;;;;;;;;5001041;28;20053;-74
2021/10/01 13:15:59;;;;;;;7.60;2.00;;;;;;;;;;5020419;28;20102;-74
2021/10/01 13:18:32;;;;;;;9.90;2.90;;;;;;;;;;5019433;28;20073;-76
2021/10/01 13:21:19;;;;;;;7.47;2.45;;;;;;;;;;5016957;28;20091;-74
2021/10/01 13:23:55;;;;;;;4.75;2.10;;;;;;;;;;5021768;28;20553;-73
2021/10/01 13:26:33;;;;;;;7.43;2.70;;;;;;;;;;5018570;28;20485;-74
2021/10/01 13:29:07;;;;;;;11.93;1.88;;;;;;;;;;5010878;28;20034;-75
2021/10/01 13:31:40;;;;;;;4.63;2.35;;;;;;;;;;5017295;28;20043;-75
2021/10/01 13:34:06;;;;;;;9.52;2.70;;;;;;;;;;5020446;28;20053;-74
2021/10/01 13:36:32;;;;;;;5.05;2.13;;;;;;;;;;5017443;28;20059;-74
2021/10/01 13:38:58;;;;;;;6.65;2.60;;;;;;;;;;5019683;28;20390;-74
2021/10/01 13:41:25;;;;;;;7.95;2.38;;;;;;;;;;5018746;28;20033;-75
2021/10/01 13:43:51;;;;;;;7.30;2.63;;;;;;;;;;5016722;28;20079;-74
2021/10/01 13:46:21;;;;;;;4.45;2.83;;;;;;;;;;5016873;28;20029;-74
2021/10/01 13:48:48;;;;;;;7.80;2.65;;;;;;;;;;5019123;28;20018;-74
2021/10/01 13:51:14;;;;;;;6.90;2.53;;;;;;;;;;5003128;28;20069;-73
2021/10/01 13:53:40;;;;;;;8.25;2.28;;;;;;;;;;5023785;28;20053;-73
2021/10/01 13:56:06;;;;;;;7.95;2.78;;;;;;;;;;5022731;28;20073;-75
2021/10/01 13:58:33;;;;;;;7.18;2.47;;;;;;;;;;5036252;28;20037;-73
2021/10/01 14:01:03;;;;;;;7.80;2.78;;;;;;;;;;5020741;28;20458;-74
2021/10/01 14:03:28;;;;;;;13.00;3.15;;;;;;;;;;5021283;28;20045;-74
2021/10/01 14:05:56;;;;;;;7.85;2.10;;;;;;;;;;5023439;28;20143;-73
2021/10/01 14:08:24;;;;;;;7.45;3.05;;;;;;;;;;5021181;28;20039;-73
2021/10/01 14:10:50;;;;;;;11.98;2.15;;;;;;;;;;5020213;28;20128;-74
2021/10/01 14:13:17;;;;;;;7.93;3.47;;;;;;;;;;5021812;28;20045;-75
2021/10/01 14:15:46;;;;;;;5.65;2.08;;;;;;;;;;5023391;28;20075;-74
2021/10/01 14:18:16;;;;;;;8.23;2.45;;;;;;;;;;5022192;28;20370;-75
2021/10/01 14:20:42;;;;;;;1.65;1.45;;;;;;;;;;5018845;28;20057;-74
2021/10/01 14:23:10;;;;;;;8.35;2.70;;;;;;;;;;5021225;28;20411;-74
2021/10/01 14:25:36;;;;;;;16.73;2.50;;;;;;;;;;5022516;28;20032;-73
2021/10/01 14:28:02;;;;;;;7.13;2.13;;;;;;;;;;5005612;28;20846;-73
2021/10/01 14:30:30;;;;;;;7.75;3.10;;;;;;;;;;5019443;28;20037;-74
2021/10/01 14:32:58;;;;;;;4.35;2.17;;;;;;;;;;5023391;28;20037;-74
2021/10/01 14:35:25;;;;;;;6.55;2.60;;;;;;;;;;5024025;28;20050;-74
2021/10/01 14:37:51;;;;;;;4.13;1.63;;;;;;;;;;5024557;28;20426;-74
2021/10/01 14:40:17;;;;;;;5.93;1.80;;;;;;;;;;5022765;28;20043;-75
2021/10/01 14:42:42;;;;;;;6.50;2.55;;;;;;;;;;5027364;28;20029;-74
2021/10/01 14:45:09;;;;;;;5.03;2.50;;;;;;;;;;5028373;28;20032;-73
2021/10/01 14:47:36;;;;;;;5.32;1.92;;;;;;;;;;5022160;28;20017;-74
2021/10/01 14:50:05;;;;;;;13.98;2.85;;;;;;;;;;5030152;28;20021;-74
2021/10/01 14:52:31;;;;;;;5.43;3.40;;;;;;;;;;5019443;28;20084;-74
2021/10/01 14:54:57;;;;;;;3.35;2.13;;;;;;;;;;5030577;28;20029;-75
2021/10/01 14:57:23;;;;;;;8.30;2.40;;;;;;;;;;5026879;28;20442;-74
2021/10/01 14:59:48;;;;;;;32.38;3.63;;;;;;;;;;5026241;28;20040;-76
2021/10/01 15:02:14;;;;;;;4.00;2.13;;;;;;;;;;5025663;28;20029;-75
2021/10/01 15:04:44;;;;;;;12.73;2.60;;;;;;;;;;5031309;28;20030;-75
2021/10/01 15:07:09;;;;;;;66.50;16.98;;;;;;;;;;5027834;28;20100;-75
2021/10/01 15:09:38;;;;;;;10.07;2.58;;;;;;;;;;5027718;28;20116;-75
2021/10/01 15:12:04;;;;;;;11.88;3.45;;;;;;;;;;5029377;28;20036;-74
2021/10/01 15:14:30;;;;;;;8.80;4.50;;;;;;;;;;5030254;28;20025;-74
2021/10/01 15:16:55;;;;;;;8.85;2.20;;;;;;;;;;5022382;28;20037;-73
2021/10/01 15:19:21;;;;;;;7.97;3.40;;;;;;;;;;5022277;28;20029;-74
2021/10/01 15:21:47;;;;;;;4.88;2.17;;;;;;;;;;5021585;28;20060;-74
2021/10/01 15:24:13;;;;;;;5.15;2.28;;;;;;;;;;5028856;28;20036;-74
2021/10/01 15:26:39;;;;;;;12.48;4.55;;;;;;;;;;5027618;28;20354;-74
2021/10/01 15:29:05;;;;;;;6.97;2.03;;;;;;;;;;5022079;28;20025;-74
2021/10/01 15:31:32;;;;;;;10.25;3.15;;;;;;;;;;5013302;28;20128;-75
2021/10/01 15:33:58;;;;;;;15.05;3.88;;;;;;;;;;5029504;28;20132;-74
2021/10/01 15:36:24;;;;;;;3.95;1.90;;;;;;;;;;5028271;28;20547;-73
2021/10/01 15:38:54;;;;;;;5.38;2.10;;;;;;;;;;5007026;28;20030;-74
2021/10/01 15:41:19;;;;;;;6.63;2.40;;;;;;;;;;5024841;28;20057;-74
2021/10/01 15:43:45;;;;;;;4.57;3.50;;;;;;;;;;5029239;28;20048;-73
2021/10/01 15:46:10;;;;;;;8.40;2.92;;;;;;;;;;5028738;28;20041;-74
2021/10/01 15:48:37;;;;;;;9.95;2.70;;;;;;;;;;5029639;28;20344;-74
2021/10/01 15:51:04;;;;;;;10.85;3.42;;;;;;;;;;5028055;28;20516;-74
2021/10/01 15:53:29;;;;;;;6.20;2.60;;;;;;;;;;5030115;28;20029;-74
2021/10/01 15:55:55;;;;;;;6.63;3.08;;;;;;;;;;5029934;28;20036;-74
2021/10/01 15:58:20;;;;;;;6.72;3.72;;;;;;;;;;5029393;28;20720;-74
2021/10/01 16:00:46;;;;;;;4.57;2.63;;;;;;;;;;5028506;28;20070;-74
2021/10/01 16:03:14;;;;;;;11.18;3.17;;;;;;;;;;5027385;28;20036;-74
2021/10/01 16:05:41;;;;;;;11.82;3.17;;;;;;;;;;5028753;28;20087;-75
2021/10/01 16:08:07;;;;;;;9.20;3.45;;;;;;;;;;5029348;28;20513;-75
2021/10/01 16:10:35;;;;;;;7.00;3.03;;;;;;;;;;5029765;28;20036;-75
2021/10/01 16:13:01;;;;;;;13.43;3.90;;;;;;;;;;5029154;28;20037;-74
2021/10/01 16:15:27;;;;;;;16.17;3.20;;;;;;;;;;5028528;28;20033;-77